X  Cerrar Datos meteorológicos de aviación METAR     KHVN Tweed New Haven Airport
Temperatura
45°F Temperatura
37°F Punto de rocío
76% Humedad



Viento
8 MPH
13 KM/H
4 M/S
7 NUDO



360°
Norte
Condiciones actuales

Mayormente nublado Mayormente nublado
Presión 1014.92 (hPa) - 29.97 (inHg)
Visibilidad 9.9 (milla) - 16 (km)
Aeropuerto
Código de aeropuerto KHVN

localidad: Tweed New Haven Airport
Distancia: 6 (mi)

Metar:
KHVN 130853Z AUTO 36007KT 10SM BKN036 OVC043 07/03 A2997 RMK AO2 SLP149 T00670033 53006

Hora: 04-13-2021 04:53 EDT